Rutledge, MO (63563)

11:48 AM CDT on August 01, 2014 (GMT -0500)
Kirksville Regional (KIRK) Elev 965 ft | 40.10 °N, 92.55 °W | Change Station

Current weather conditions updated 53 minutes ago

Clear
Clear
76 °F
Feels Like 76 °F
N
8
Wind Variable Wind from NW

Today is forecast to be nearly the same temperature as yesterday. Scattered thunderstorms.

Today
High -- | Low -- °F
--% Chance of Precip.
Yesterday
High -- | Low -- °F
Precip. -- in
6:06 AM 8:22 PM
Waxing Crescent, 27% visible
Pressure 30.12 in
Visibility 10.0 miles
Clouds Clear
Dew Point 61 °F
Humidity 60%
Rainfall 0.00 in
Snow Depth Not available.
UV 8 out of 12
Pollen 7.10 out of 12
Air Quality Not available.
Flu Activity Not available.
METAR KIRK 011555Z AUTO 31007KT 10SM CLR 24/16 A3012 RMK AO2 SLP198 T02440161

More Conditions Fewer Conditions

Pressure 30.12 in
Visibility 10.0 miles
Clouds Clear
Dew Point 61 °F
Humidity 60%
Rainfall 0.00 in
Snow Depth Not available.
UV 8 out of 12
Pollen 7.10 out of 12
Air Quality Not available.
Flu Activity Not available.
METAR KIRK 011555Z AUTO 31007KT 10SM CLR 24/16 A3012 RMK AO2 SLP198 T02440161

More Conditions Fewer Conditions

10-Day Weather Forecast

Almanac

Astronomy

Aug. 01, 2014 Rise Set
Actual Time 6:06 AM CDT 8:22 PM CDT
Civil Twilight 5:35 AM CDT 8:53 PM CDT
Nautical Twilight 4:57 AM CDT 9:30 PM CDT
Astronomical Twilight 4:16 AM CDT 10:11 PM CDT
Moon 11:31 AM CDT 11:06 PM CDT
Length of Visible Light 15h 17m
Length of Day
14h 16m
Tomorrow will be 2m 2s shorter.
Waxing Crescent, 27% of the Moon is Illuminated
Today
Waxing Crescent
Aug 3
First Quarter
Aug 10
Full
Aug 17
Last Quarter
Aug 25
New

Today's Extremes

State Highs State Lows

Community

WunderPhotos

Upload Photos

1,739,632 photos uploaded!

Nearby

Snow Depth

Station Depth Elevation
No new snow has been reported.

Earthquake Activity

City Distance Mag. Time & Date
No recent earthquake activity has been reported nearby.
Minimum magnitude displayed is 2.5.

Coastal Water Temperatures

Place Temperature
No Stations Reporting

Nearby Weather Stations

There are no personal weather stations in this area.